Latest Weather Observations for Bunbury

IDW60801

Issued at 7:05 pm WST Tuesday 2 September 2014 (issued every 30 minutes, with the page automatically refreshed every 10 minutes)

About weather observations | Map of weather stations | Latest weather observations for WA | Other Formats
Station Details ID: 009965 Name: BUNBURY Lat: -33.36 Lon: 115.64 Height: 5.2 m
Data from the previous 72 hours. | See also: Recent months at Bunbury
Date/Time
WST
Temp
°C
App
Temp
°C
Dew
Point
Rel
Hum
%
Delta-T
°C
Wind Press
QNH
hPa
Press
MSL
hPa
Rain
since 9 am
mm
Dir
 
Spd
km/h
Gust
km/h
Spd
kts
Gust
kts
02/07:00pm 15.4 15.0 13.1 86 1.3 SSW 7 9 4 5 1018.7 1018.6 0.0
02/06:30pm 15.9 16.0 12.6 81 1.8 SW 4 6 2 3 1017.9 1017.8 0.0
02/06:00pm 16.6 17.4 12.6 77 2.2 CALM 0 2 0 1 1018.0 1017.9 0.0
02/05:30pm 17.0 16.6 12.5 75 2.5 WSW 6 9 3 5 1017.7 1017.6 0.0
02/05:00pm 17.4 16.9 12.1 71 2.9 WSW 6 9 3 5 1016.7 1016.6 0.0
02/04:30pm 18.0 17.4 12.2 69 3.2 WSW 7 11 4 6 1016.5 1016.4 0.0
02/04:00pm 18.4 17.4 12.2 67 3.4 W 9 15 5 8 1016.4 1016.3 0.0
02/03:30pm 18.8 18.2 12.3 66 3.6 WSW 7 13 4 7 1016.0 1015.9 0.0
02/03:00pm 18.0 17.1 11.3 65 3.6 SW 7 11 4 6 1016.0 1015.9 0.0
02/02:30pm 17.9 16.8 12.1 69 3.2 WSW 9 13 5 7 1016.1 1016.0 0.0
02/02:00pm 17.8 16.7 11.8 68 3.3 W 9 11 5 6 1015.8 1015.7 0.0
02/01:30pm 18.2 16.9 11.3 64 3.8 W 9 13 5 7 1015.7 1015.6 0.0
02/01:00pm 19.5 18.4 10.0 54 5.1 WNW 6 9 3 5 1015.4 1015.3 0.0
02/12:30pm 19.1 17.8 9.9 55 4.9 WNW 7 9 4 5 1015.8 1015.7 0.0
02/12:00pm 19.9 18.2 10.0 53 5.3 NW 9 13 5 7 1016.2 1016.1 0.0
02/11:30am 20.6 19.3 10.1 51 5.7 N 7 11 4 6 1016.5 1016.4 0.0
02/11:00am 20.0 19.1 9.3 50 5.7 N 4 9 2 5 1016.8 1016.7 0.0
02/10:30am 20.1 20.1 9.9 52 5.5 CALM 0 0 0 0 1016.8 1016.7 0.0
02/10:00am 18.2 17.3 9.3 56 4.7 NE 4 6 2 3 1016.9 1016.8 0.0
02/09:30am 18.0 17.1 9.4 57 4.5 E 4 6 2 3 1017.0 1016.9 0.0
02/09:00am 15.5 14.2 9.2 66 3.2 E 6 9 3 5 1017.1 1017.0 0.2
02/08:30am 14.3 12.7 8.9 70 2.7 E 7 11 4 6 1017.1 1017.0 0.2
02/08:00am 12.8 11.8 8.7 76 2.0 ENE 4 6 2 3 1017.6 1017.5 0.2
02/07:30am 11.7 10.6 8.4 80 1.6 SE 4 6 2 3 1017.4 1017.3 0.2
02/07:00am 11.2 10.0 7.9 80 1.6 E 4 6 2 3 1017.1 1017.0 0.2
02/06:30am 11.1 9.5 7.8 80 1.6 ENE 6 9 3 5 1017.2 1017.1 0.2
02/06:00am 11.3 9.4 7.4 77 1.9 ENE 7 11 4 6 1016.8 1016.7 0.0
02/05:30am 10.6 9.5 8.4 86 1.1 E 4 6 2 3 1017.0 1016.9 0.0
02/05:00am 11.0 10.6 8.1 82 1.4 CALM 0 0 0 0 1017.2 1017.1 0.0
02/04:30am 11.1 9.7 7.4 78 1.8 SE 4 6 2 3 1016.9 1016.8 0.0
02/04:00am 11.4 10.0 7.3 76 2.0 ESE 4 6 2 3 1017.4 1017.3 0.0
02/03:30am 11.2 9.5 7.5 78 1.8 ESE 6 7 3 4 1017.5 1017.4 0.0
02/03:00am 11.3 10.0 7.6 78 1.8 SE 4 6 2 3 1017.8 1017.7 0.0
02/02:30am 11.1 9.7 7.4 78 1.8 SE 4 6 2 3 1018.5 1018.4 0.0
02/02:00am 11.4 9.6 7.3 76 2.0 ESE 6 7 3 4 1018.9 1018.8 0.0
02/01:30am 11.4 9.7 7.7 78 1.8 SE 6 7 3 4 1019.2 1019.1 0.0
02/01:00am 10.9 9.7 8.0 82 1.4 S 4 4 2 2 1019.5 1019.4 0.0
02/12:30am 10.9 9.7 8.0 82 1.4 S 4 6 2 3 1019.8 1019.7 0.0
02/12:00am 10.7 9.8 7.8 82 1.4 E 2 4 1 2 1019.9 1019.8 0.0
 
Date/Time
WST
Temp
°C
App
Temp
°C
Dew
Point
Rel
Hum
%
Delta-T
°C
Wind Press
QNH
hPa
Press
MSL
hPa
Rain
since 9 am
mm
Dir
 
Spd
km/h
Gust
km/h
Spd
kts
Gust
kts
01/11:30pm 10.3 9.4 7.7 84 1.2 ESE 2 6 1 3 1019.9 1019.8 0.0
01/11:00pm 10.4 9.0 7.1 80 1.6 E 4 4 2 2 1020.4 1020.3 0.0
01/10:00pm 10.2 - - - - ESE 6 7 3 4 1020.9 1020.8 0.0
01/09:30pm 10.7 - - - - SE 4 7 2 4 1021.5 1021.5 0.0
01/09:00pm 10.6 - - - - CALM 0 6 0 3 1021.6 1021.6 0.0
01/08:30pm 10.7 - - - - CALM 0 4 0 2 1021.3 1021.3 0.0
01/08:00pm 10.8 - - - - CALM 0 0 0 0 1021.4 1021.4 0.0
01/07:30pm 11.7 - - - - ESE 6 7 3 4 1021.3 1021.3 0.0
01/07:00pm 12.5 - - - - S 4 6 2 3 1021.4 1021.4 0.0
01/06:30pm 13.5 - - - - W 4 6 2 3 1021.9 1021.9 0.0
01/06:00pm 14.2 - - - - SW 7 11 4 6 1021.4 1021.4 0.0
01/05:30pm 15.0 - - - - SW 7 11 4 6 1021.1 1021.1 0.0
01/05:00pm 16.4 - - - - WSW 9 11 5 6 1021.2 1021.2 0.0
01/04:30pm 16.6 - - - - SW 9 13 5 7 1020.8 1020.7 0.0
01/04:00pm 17.9 - - - - WSW 7 13 4 7 1021.2 1021.2 0.0
01/03:30pm 18.7 - - - - W 6 7 3 4 1021.1 1021.1 0.0
01/03:00pm 18.3 - - - - SW 4 11 2 6 1021.2 1021.2 0.0
01/02:30pm 17.1 - - - - ESE 4 13 2 7 1021.5 1021.5 0.0
01/02:00pm 18.5 - - - - E 7 15 4 8 1021.4 1021.4 0.0
01/01:30pm 17.9 - - - - E 7 17 4 9 1021.8 1021.8 0.0
01/01:00pm 17.0 14.4 4.3 43 5.9 N 7 15 4 8 1022.3 1022.3 0.0
01/12:30pm 17.2 14.5 5.5 46 5.6 N 9 17 5 9 1023.0 1023.0 0.0
01/12:00pm 16.6 13.7 6.7 52 4.9 N 11 17 6 9 1023.6 1023.6 0.0
01/11:30am 16.5 13.9 6.1 50 5.1 NNE 9 15 5 8 1024.0 1024.0 0.0
01/11:00am 16.5 14.4 8.2 58 4.2 NE 9 17 5 9 1024.2 1024.2 0.0
01/10:30am 15.3 12.2 7.3 59 4.0 NE 13 22 7 12 1024.5 1024.5 0.0
01/10:00am 15.0 12.3 7.5 61 3.7 ENE 11 19 6 10 1024.5 1024.5 0.0
01/09:30am 14.0 11.5 8.0 67 3.0 ENE 11 20 6 11 1024.7 1024.7 0.0
01/09:00am 12.5 10.2 7.6 72 2.4 E 9 15 5 8 1024.5 1024.5 0.0
01/08:30am 10.6 8.2 6.9 78 1.7 ENE 9 13 5 7 1024.8 1024.8 0.0
01/08:00am 9.4 7.4 8.5 94 0.4 E 9 13 5 7 1024.7 1024.7 0.0
01/07:30am 6.6 4.4 6.0 96 0.3 E 7 9 4 5 1024.5 1024.5 0.0
01/07:00am 4.3 1.8 3.7 96 0.2 E 6 7 3 4 1024.6 1024.6 0.0
01/06:30am 4.0 2.2 3.4 96 0.2 E 2 4 1 2 1024.1 1024.1 0.0
01/06:00am 3.9 2.1 3.3 96 0.2 ESE 2 6 1 3 1023.6 1023.6 0.0
01/05:30am 4.0 - - - - CALM 0 0 0 0 1023.5 1023.5 0.0
01/05:00am 3.6 - - - - CALM 0 4 0 2 1023.1 1023.1 0.0
01/04:30am 4.0 2.6 3.3 95 0.3 CALM 0 0 0 0 1023.0 1023.0 0.0
01/04:00am 4.0 2.6 3.3 95 0.3 CALM 0 0 0 0 1022.9 1022.9 0.0
01/03:30am 4.3 2.1 3.6 95 0.3 E 4 6 2 3 1022.8 1022.8 0.0
01/03:00am 4.8 3.5 4.1 95 0.3 CALM 0 0 0 0 1023.0 1023.0 0.0
01/02:30am 4.7 2.6 4.0 95 0.3 E 4 6 2 3 1022.9 1022.9 0.0
01/02:00am 5.2 2.8 4.5 95 0.3 ESE 6 7 3 4 1023.0 1023.0 0.0
01/01:30am 6.0 3.8 5.1 94 0.4 ESE 6 7 3 4 1023.0 1023.0 0.0
01/01:00am 5.8 3.5 4.9 94 0.4 SE 6 7 3 4 1023.0 1023.0 0.0
01/12:30am 6.5 4.4 5.6 94 0.4 SE 6 7 3 4 1023.0 1023.0 0.0
01/12:00am 6.6 5.6 5.6 93 0.4 CALM 0 2 0 1 1023.0 1023.0 0.0
 
Date/Time
WST
Temp
°C
App
Temp
°C
Dew
Point
Rel
Hum
%
Delta-T
°C
Wind Press
QNH
hPa
Press
MSL
hPa
Rain
since 9 am
mm
Dir
 
Spd
km/h
Gust
km/h
Spd
kts
Gust
kts
31/11:30pm 6.8 5.4 5.4 91 0.6 S 2 4 1 2 1023.0 1023.0 0.0
31/11:00pm 8.2 6.3 6.5 89 0.8 SSE 6 7 3 4 1023.3 1023.3 0.0
31/10:30pm 8.5 6.4 6.5 87 0.9 SE 7 9 4 5 1023.4 1023.4 0.0
31/10:00pm 9.5 7.1 6.8 83 1.3 SSE 9 13 5 7 1023.6 1023.6 0.0
31/09:30pm 9.7 7.7 7.0 83 1.3 S 7 9 4 5 1023.4 1023.4 0.0
31/09:00pm 10.0 8.0 7.1 82 1.4 S 7 9 4 5 1023.0 1023.0 0.0
31/08:30pm 10.9 8.5 7.0 77 1.9 S 9 13 5 7 1022.6 1022.6 0.0
31/08:00pm 11.0 9.0 7.1 77 1.8 S 7 11 4 6 1022.3 1022.3 0.0
31/07:30pm 11.2 9.2 7.1 76 2.0 S 7 9 4 5 1021.9 1021.9 0.0
31/07:00pm 11.9 9.9 7.0 72 2.3 S 7 9 4 5 1021.7 1021.7 0.0
31/06:30pm 12.8 10.7 6.6 66 3.0 SSW 7 11 4 6 1021.2 1021.2 0.0
31/06:00pm 13.7 10.8 6.6 62 3.4 SSW 11 19 6 10 1021.0 1021.0 0.0
31/05:30pm 15.1 12.2 6.4 56 4.2 SW 11 19 6 10 1020.9 1020.9 0.0
31/05:00pm 15.6 11.2 6.6 55 4.4 SW 19 26 10 14 1020.7 1020.7 0.0
31/04:30pm 16.8 13.8 7.7 55 4.6 W 13 20 7 11 1020.1 1020.1 0.0
31/04:00pm 16.9 13.9 7.5 54 4.7 W 13 22 7 12 1019.8 1019.8 0.0
31/03:30pm 16.6 13.0 8.3 58 4.2 W 17 26 9 14 1019.8 1019.8 0.0
31/03:00pm 16.7 13.2 7.1 53 4.8 W 15 22 8 12 1019.6 1019.6 0.0
31/02:30pm 17.2 14.5 8.9 58 4.3 W 13 20 7 11 1019.6 1019.6 0.0
31/02:00pm 16.9 13.5 7.8 55 4.6 W 15 22 8 12 1019.7 1019.7 0.0
31/01:30pm 16.9 14.0 8.1 56 4.5 W 13 19 7 10 1019.5 1019.5 0.0
31/01:00pm 17.1 14.2 8.0 55 4.6 W 13 19 7 10 1019.3 1019.3 0.0
31/12:30pm 17.1 14.1 7.5 53 4.8 W 13 20 7 11 1019.6 1019.6 0.0
31/12:00pm 16.6 14.3 7.5 55 4.5 SSW 9 15 5 8 1019.8 1019.8 0.0
31/11:30am 16.3 13.1 6.7 53 4.7 S 13 20 7 11 1020.1 1020.1 0.0
31/11:00am 15.6 12.7 6.3 54 4.5 S 11 24 6 13 1020.4 1020.4 0.0
31/10:30am 16.2 14.6 8.7 61 3.8 SSW 7 17 4 9 1020.4 1020.4 0.0
31/10:00am 15.1 13.0 8.1 63 3.5 SSE 9 17 5 9 1020.6 1020.6 0.0
31/09:30am 14.7 13.0 8.4 66 3.2 SSE 7 17 4 9 1020.5 1020.5 0.0
31/09:00am 14.4 13.2 9.4 72 2.6 E 6 9 3 5 1020.5 1020.5 0.2
31/08:30am 13.2 12.4 9.5 78 1.9 ESE 4 6 2 3 1020.4 1020.4 0.2
31/08:00am 11.3 11.5 10.7 96 0.3 CALM 0 4 0 2 1019.8 1019.8 0.2
31/07:30am 9.1 8.8 8.5 96 0.3 CALM 0 0 0 0 1019.7 1019.7 0.2
31/07:00am 6.8 5.9 6.2 96 0.3 CALM 0 0 0 0 1019.4 1019.4 0.2
31/06:30am 7.1 6.3 6.4 95 0.3 CALM 0 0 0 0 1019.1 1019.1 0.2
31/06:00am 7.9 7.2 7.1 95 0.4 CALM 0 0 0 0 1018.7 1018.7 0.2
31/05:30am 8.2 7.6 7.4 95 0.4 CALM 0 0 0 0 1018.4 1018.4 0.2
31/05:00am 8.6 8.1 7.7 94 0.4 CALM 0 0 0 0 1018.5 1018.5 0.2
31/04:30am 9.9 9.6 8.8 93 0.5 CALM 0 0 0 0 1018.3 1018.3 0.2
31/04:00am 10.4 9.5 9.2 92 0.6 S 4 7 2 4 1018.4 1018.4 0.2
31/03:30am 10.5 9.1 9.4 93 0.5 S 7 13 4 7 1018.4 1018.4 0.2
31/03:00am 10.6 9.2 9.7 94 0.5 S 7 9 4 5 1018.5 1018.5 0.2
31/02:30am 10.4 10.3 9.5 94 0.4 CALM 0 0 0 0 1018.2 1018.2 0.2
31/02:00am 10.8 10.8 9.7 93 0.6 CALM 0 0 0 0 1018.3 1018.3 0.2
31/01:30am 10.9 10.9 9.7 92 0.6 CALM 0 0 0 0 1018.2 1018.2 0.0
31/01:00am 10.8 9.5 9.2 90 0.8 S 6 9 3 5 1018.3 1018.3 0.0
31/12:30am 11.6 9.9 10.0 90 0.8 S 9 15 5 8 1018.0 1018.0 0.0
31/12:00am 11.7 11.8 10.1 90 0.8 CALM 0 0 0 0 1017.9 1017.9 0.0
 
Date/Time
WST
Temp
°C
App
Temp
°C
Dew
Point
Rel
Hum
%
Delta-T
°C
Wind Press
QNH
hPa
Press
MSL
hPa
Rain
since 9 am
mm
Dir
 
Spd
km/h
Gust
km/h
Spd
kts
Gust
kts
30/11:30pm 11.7 10.6 9.9 89 0.9 S 6 7 3 4 1018.3 1018.3 0.0
30/11:00pm 11.8 11.5 10.0 89 0.9 SSE 2 4 1 2 1018.3 1018.3 0.0
30/10:30pm 11.9 11.7 10.3 90 0.8 S 2 4 1 2 1018.2 1018.2 0.0
30/10:00pm 11.7 10.7 10.3 91 0.7 S 6 7 3 4 1018.5 1018.5 0.0
30/09:30pm 11.8 11.3 10.7 93 0.6 S 4 6 2 3 1018.3 1018.3 0.0
30/09:00pm 11.7 11.5 10.3 91 0.7 S 2 6 1 3 1018.2 1018.2 0.0
30/08:30pm 11.8 11.5 10.2 90 0.8 SE 2 4 1 2 1018.1 1018.1 0.0
30/08:00pm 12.5 11.8 10.2 86 1.2 S 4 6 2 3 1018.2 1018.2 0.0
30/07:30pm 12.6 11.5 9.8 83 1.4 S 6 6 3 3 1017.8 1017.8 0.0

Other Formats:

Comma delimited format used in spreadsheet applications
http://www.bom.gov.au/fwo/IDW60801/IDW60801.94604.axf

JavaScript Object Notation format (JSON) in row-major order
http://www.bom.gov.au/fwo/IDW60801/IDW60801.94604.json